Time;durP1;ratioP1;P1;durP2;ratioP2;P2;SDS_P1;SDS_P2;PMS_P1;PMS_P2;Temp;Humidity;BMP_temperature;BMP_pressure;BME280_temperature;BME280_humidity;BME280_pressure;Samples;Min_cycle;Max_cycle;Signal;HPM_P1;HPM_P2
2022/12/18 00:02:25;;;;;;;201.23;95.53;;;;;;;;;;5076465;28;20498;-86
2022/12/18 00:04:54;;;;;;;96.93;44.60;;;;;;;;;;5094854;28;20466;-86
2022/12/18 00:07:23;;;;;;;191.30;90.33;;;;;;;;;;5092790;28;20493;-86
2022/12/18 00:09:52;;;;;;;174.17;87.60;;;;;;;;;;5075428;28;20469;-86
2022/12/18 00:12:20;;;;;;;185.00;89.20;;;;;;;;;;5074946;28;20514;-86
2022/12/18 00:14:48;;;;;;;166.57;78.43;;;;;;;;;;5093640;28;20469;-86
2022/12/18 00:17:17;;;;;;;199.20;85.53;;;;;;;;;;5071896;28;20555;-86
2022/12/18 00:19:45;;;;;;;212.23;103.10;;;;;;;;;;5085822;28;20438;-86
2022/12/18 00:22:13;;;;;;;172.90;76.23;;;;;;;;;;5089874;28;20471;-86
2022/12/18 00:24:43;;;;;;;173.03;81.53;;;;;;;;;;5075011;28;20458;-86
2022/12/18 00:27:11;;;;;;;155.53;67.57;;;;;;;;;;5074091;28;20454;-86
2022/12/18 00:29:40;;;;;;;142.57;68.27;;;;;;;;;;5075973;28;20435;-86
2022/12/18 00:32:08;;;;;;;186.23;98.57;;;;;;;;;;5093532;28;20447;-86
2022/12/18 00:34:37;;;;;;;146.30;68.87;;;;;;;;;;5075636;28;20468;-86
2022/12/18 00:37:05;;;;;;;165.90;71.00;;;;;;;;;;5076151;28;20467;-86
2022/12/18 00:39:33;;;;;;;175.03;73.77;;;;;;;;;;5063254;28;20449;-85
2022/12/18 00:44:49;;;;;;;230.03;79.83;;;;;;;;;;5094453;28;20438;-86
2022/12/18 00:47:17;;;;;;;107.27;48.73;;;;;;;;;;5074976;28;20466;-86
2022/12/18 00:49:46;;;;;;;190.57;87.10;;;;;;;;;;5064522;28;20530;-86
2022/12/18 00:52:14;;;;;;;138.93;59.43;;;;;;;;;;5075953;28;20447;-86
2022/12/18 00:54:43;;;;;;;175.87;81.83;;;;;;;;;;5075390;28;20442;-86
2022/12/18 00:57:12;;;;;;;144.53;65.13;;;;;;;;;;5093620;28;20482;-86
2022/12/18 00:59:41;;;;;;;145.90;76.50;;;;;;;;;;5074795;28;20447;-86
2022/12/18 01:02:09;;;;;;;159.07;79.10;;;;;;;;;;5075504;28;20482;-86
2022/12/18 01:04:38;;;;;;;128.53;62.70;;;;;;;;;;5061993;28;20454;-86
2022/12/18 01:07:06;;;;;;;123.97;52.33;;;;;;;;;;5075906;28;20470;-86
2022/12/18 01:09:35;;;;;;;69.47;31.67;;;;;;;;;;5077137;28;20494;-86
2022/12/18 01:12:03;;;;;;;143.13;65.17;;;;;;;;;;5070120;28;20485;-86
2022/12/18 01:14:33;;;;;;;282.67;121.60;;;;;;;;;;5068017;28;20475;-86
2022/12/18 01:17:03;;;;;;;211.90;90.13;;;;;;;;;;5068293;28;20546;-86
2022/12/18 01:19:31;;;;;;;166.27;88.10;;;;;;;;;;5074819;28;20477;-86
2022/12/18 01:22:00;;;;;;;160.73;77.13;;;;;;;;;;5073907;28;20444;-86
2022/12/18 01:24:28;;;;;;;65.43;29.17;;;;;;;;;;5074694;28;20474;-86
2022/12/18 01:26:57;;;;;;;98.70;46.67;;;;;;;;;;5074935;28;20476;-86
2022/12/18 01:29:26;;;;;;;188.77;78.23;;;;;;;;;;5075264;28;20446;-86
2022/12/18 01:31:57;;;;;;;145.60;70.73;;;;;;;;;;5072845;28;20545;-85
2022/12/18 01:34:26;;;;;;;140.87;70.60;;;;;;;;;;5093169;28;20442;-86
2022/12/18 01:36:54;;;;;;;161.50;80.97;;;;;;;;;;5077114;28;20436;-86
2022/12/18 01:39:22;;;;;;;108.27;54.87;;;;;;;;;;5089253;28;20442;-86
2022/12/18 01:42:03;;;;;;;130.67;62.13;;;;;;;;;;5077674;28;20459;-86
2022/12/18 01:45:01;;;;;;;184.73;77.30;;;;;;;;;;5078277;28;20473;-86
2022/12/18 01:47:33;;;;;;;156.03;62.83;;;;;;;;;;4977939;28;20537;-85
2022/12/18 01:50:03;;;;;;;206.00;90.40;;;;;;;;;;5057582;28;20455;-86
2022/12/18 01:52:34;;;;;;;157.83;69.23;;;;;;;;;;5072576;28;20532;-86
2022/12/18 01:55:03;;;;;;;172.03;79.10;;;;;;;;;;5084606;28;20447;-86
2022/12/18 01:57:32;;;;;;;150.67;65.67;;;;;;;;;;5076927;28;20495;-87
2022/12/18 02:00:02;;;;;;;126.60;58.67;;;;;;;;;;5067114;28;20490;-86
2022/12/18 02:02:32;;;;;;;121.83;55.07;;;;;;;;;;5077142;28;20454;-86
2022/12/18 02:05:00;;;;;;;64.23;26.20;;;;;;;;;;5069123;28;20586;-85
2022/12/18 02:07:34;;;;;;;110.30;48.53;;;;;;;;;;5071051;28;20466;-86
2022/12/18 02:10:07;;;;;;;133.37;58.53;;;;;;;;;;5078660;28;20493;-86
2022/12/18 02:12:38;;;;;;;136.60;55.17;;;;;;;;;;5060675;28;20448;-86
2022/12/18 02:15:08;;;;;;;178.00;68.57;;;;;;;;;;5059494;28;20568;-86
2022/12/18 02:17:39;;;;;;;167.97;75.53;;;;;;;;;;5068964;28;20533;-86
2022/12/18 02:20:14;;;;;;;56.07;23.17;;;;;;;;;;5078156;28;20498;-86
2022/12/18 02:22:47;;;;;;;148.17;56.50;;;;;;;;;;5076837;28;20454;-86
2022/12/18 02:25:22;;;;;;;185.20;83.90;;;;;;;;;;5065158;28;20513;-86
2022/12/18 02:27:52;;;;;;;109.37;46.63;;;;;;;;;;5077694;28;20496;-86
2022/12/18 02:30:21;;;;;;;154.43;81.30;;;;;;;;;;5078213;28;20478;-86
2022/12/18 02:32:51;;;;;;;146.70;68.77;;;;;;;;;;5066914;28;20452;-86
2022/12/18 02:35:22;;;;;;;122.97;56.93;;;;;;;;;;5075615;28;20486;-86
2022/12/18 02:37:51;;;;;;;144.60;55.00;;;;;;;;;;5095907;28;20461;-86
2022/12/18 02:40:20;;;;;;;121.50;50.27;;;;;;;;;;5077895;28;20469;-86
2022/12/18 02:42:49;;;;;;;51.97;21.80;;;;;;;;;;5076577;28;20499;-86
2022/12/18 02:45:19;;;;;;;187.10;47.40;;;;;;;;;;5077486;28;20470;-86
2022/12/18 02:47:49;;;;;;;132.30;53.37;;;;;;;;;;5075277;28;20460;-86
2022/12/18 02:50:24;;;;;;;270.63;80.87;;;;;;;;;;5077957;28;20485;-86
2022/12/18 02:53:00;;;;;;;174.27;60.80;;;;;;;;;;5077891;28;20442;-86
2022/12/18 02:55:32;;;;;;;155.50;66.60;;;;;;;;;;5065814;28;20458;-86
2022/12/18 02:58:05;;;;;;;133.40;54.60;;;;;;;;;;5063561;28;20488;-86
2022/12/18 03:00:37;;;;;;;113.47;51.23;;;;;;;;;;5095961;28;20513;-86
2022/12/18 03:03:08;;;;;;;139.93;67.70;;;;;;;;;;5084151;28;20451;-86
2022/12/18 03:05:39;;;;;;;141.83;54.67;;;;;;;;;;5064496;28;20483;-86
2022/12/18 03:08:09;;;;;;;199.97;80.23;;;;;;;;;;5074011;28;20541;-86
2022/12/18 03:10:40;;;;;;;136.83;52.33;;;;;;;;;;5069136;28;20486;-86
2022/12/18 03:13:11;;;;;;;157.93;58.30;;;;;;;;;;5089010;28;20503;-86
2022/12/18 03:15:44;;;;;;;133.77;55.57;;;;;;;;;;5095417;28;20493;-86
2022/12/18 03:18:14;;;;;;;135.43;59.07;;;;;;;;;;5070893;28;20475;-86
2022/12/18 03:20:43;;;;;;;60.33;27.00;;;;;;;;;;5063980;28;20479;-87
2022/12/18 03:23:14;;;;;;;78.50;27.87;;;;;;;;;;5076240;28;20463;-86
2022/12/18 03:25:43;;;;;;;109.43;45.07;;;;;;;;;;5067453;28;20497;-86
2022/12/18 03:28:14;;;;;;;152.20;69.20;;;;;;;;;;5077099;28;20447;-86
2022/12/18 03:30:45;;;;;;;131.63;65.97;;;;;;;;;;5094696;28;20471;-86
2022/12/18 03:33:19;;;;;;;130.37;60.73;;;;;;;;;;5063456;28;20462;-86
2022/12/18 03:35:48;;;;;;;151.07;62.13;;;;;;;;;;5070233;28;20443;-87
2022/12/18 03:38:16;;;;;;;133.43;50.70;;;;;;;;;;5077484;28;20439;-86
2022/12/18 03:40:47;;;;;;;157.87;68.77;;;;;;;;;;5073838;28;20452;-87
2022/12/18 03:43:22;;;;;;;72.30;30.03;;;;;;;;;;5073417;28;20549;-86
2022/12/18 03:45:57;;;;;;;77.03;33.73;;;;;;;;;;5075912;28;20510;-87
2022/12/18 03:48:28;;;;;;;132.30;62.00;;;;;;;;;;5075013;28;20640;-86
2022/12/18 03:50:58;;;;;;;120.93;55.80;;;;;;;;;;5076959;28;20497;-87
2022/12/18 03:53:30;;;;;;;50.97;26.27;;;;;;;;;;5063853;28;20489;-87
2022/12/18 03:56:00;;;;;;;75.80;33.20;;;;;;;;;;5075739;28;20462;-87
2022/12/18 03:58:29;;;;;;;95.37;45.27;;;;;;;;;;5094535;28;20453;-87
2022/12/18 04:01:01;;;;;;;61.67;29.20;;;;;;;;;;5076405;28;20454;-87
2022/12/18 04:03:31;;;;;;;181.43;63.90;;;;;;;;;;5075489;28;20506;-87
2022/12/18 04:06:01;;;;;;;208.03;64.10;;;;;;;;;;5062946;28;20478;-87
2022/12/18 04:08:30;;;;;;;242.30;62.77;;;;;;;;;;5071893;28;20537;-87
2022/12/18 04:10:59;;;;;;;84.20;30.30;;;;;;;;;;5076466;28;20442;-87
2022/12/18 04:13:29;;;;;;;124.03;38.07;;;;;;;;;;5065120;28;20452;-87
2022/12/18 04:15:59;;;;;;;207.83;50.40;;;;;;;;;;5091402;28;20438;-87
2022/12/18 04:18:28;;;;;;;35.07;16.00;;;;;;;;;;5065859;28;20495;-87
2022/12/18 04:20:56;;;;;;;90.83;31.27;;;;;;;;;;5076222;28;20497;-87
2022/12/18 04:23:24;;;;;;;84.97;23.60;;;;;;;;;;5063642;28;20448;-87
2022/12/18 04:25:53;;;;;;;100.67;36.03;;;;;;;;;;5075987;28;20555;-87
2022/12/18 04:28:21;;;;;;;89.23;40.07;;;;;;;;;;5074392;28;20446;-87
2022/12/18 04:30:50;;;;;;;62.47;30.83;;;;;;;;;;5076938;28;20462;-87
2022/12/18 04:33:20;;;;;;;63.63;31.13;;;;;;;;;;5068779;28;20511;-87
2022/12/18 04:35:48;;;;;;;77.50;39.10;;;;;;;;;;5075846;28;20455;-87
2022/12/18 04:38:16;;;;;;;62.17;31.37;;;;;;;;;;5085897;28;20462;-88
2022/12/18 04:40:45;;;;;;;63.60;33.53;;;;;;;;;;5065505;28;20476;-88
2022/12/18 04:43:13;;;;;;;63.50;32.53;;;;;;;;;;5073759;28;20439;-87
2022/12/18 04:45:42;;;;;;;56.67;33.67;;;;;;;;;;5056631;28;20497;-88
2022/12/18 04:48:10;;;;;;;75.20;40.57;;;;;;;;;;5089491;28;20505;-88
2022/12/18 04:50:40;;;;;;;49.60;27.50;;;;;;;;;;5076127;28;20450;-88
2022/12/18 04:53:08;;;;;;;63.67;35.23;;;;;;;;;;5075415;28;20449;-87
2022/12/18 04:55:38;;;;;;;65.10;35.87;;;;;;;;;;5065372;28;20538;-88
2022/12/18 04:58:11;;;;;;;69.80;32.93;;;;;;;;;;5069318;28;20452;-88
2022/12/18 05:00:39;;;;;;;85.47;47.70;;;;;;;;;;5068655;28;20454;-88
2022/12/18 05:03:08;;;;;;;68.57;35.77;;;;;;;;;;5074634;28;20450;-88
2022/12/18 05:05:36;;;;;;;66.40;36.60;;;;;;;;;;5069331;28;20475;-87
2022/12/18 05:08:06;;;;;;;57.10;28.37;;;;;;;;;;5062847;28;20461;-88
2022/12/18 05:10:35;;;;;;;50.60;24.40;;;;;;;;;;5061463;28;20466;-88
2022/12/18 05:13:05;;;;;;;18.70;10.67;;;;;;;;;;5063840;28;20454;-88
2022/12/18 05:15:34;;;;;;;46.07;26.30;;;;;;;;;;5069614;28;20476;-88
2022/12/18 05:18:06;;;;;;;73.53;35.17;;;;;;;;;;5074607;28;20454;-88
2022/12/18 05:20:35;;;;;;;55.77;30.23;;;;;;;;;;5074407;28;20493;-88
2022/12/18 05:23:03;;;;;;;33.43;16.13;;;;;;;;;;5076051;28;20435;-88
2022/12/18 05:25:33;;;;;;;55.63;31.23;;;;;;;;;;5074380;28;20475;-87
2022/12/18 05:28:01;;;;;;;33.17;21.30;;;;;;;;;;5065146;28;20703;-88
2022/12/18 05:30:30;;;;;;;7.07;6.23;;;;;;;;;;5073364;28;20447;-88
2022/12/18 05:32:58;;;;;;;9.13;6.33;;;;;;;;;;5075701;28;20507;-88
2022/12/18 05:35:26;;;;;;;15.83;10.30;;;;;;;;;;5070580;28;20509;-88
2022/12/18 05:37:55;;;;;;;11.10;8.33;;;;;;;;;;5068805;28;20536;-88
2022/12/18 05:40:27;;;;;;;17.13;10.80;;;;;;;;;;5075228;28;20494;-88
2022/12/18 05:42:57;;;;;;;9.30;7.70;;;;;;;;;;5062746;28;20455;-88
2022/12/18 05:45:26;;;;;;;4.30;4.00;;;;;;;;;;5080045;28;20470;-89
2022/12/18 05:47:54;;;;;;;14.33;9.23;;;;;;;;;;5071793;28;20447;-88
2022/12/18 05:50:24;;;;;;;7.97;7.23;;;;;;;;;;5076277;28;20454;-89
2022/12/18 05:52:52;;;;;;;17.33;8.97;;;;;;;;;;5075194;28;20456;-89
2022/12/18 05:58:48;;;;;;;17.13;9.80;;;;;;;;;;5083986;28;20471;-89
2022/12/18 06:01:17;;;;;;;24.03;14.40;;;;;;;;;;5071322;28;20462;-88
2022/12/18 06:03:46;;;;;;;10.27;9.23;;;;;;;;;;5064703;28;20532;-88
2022/12/18 06:06:16;;;;;;;22.97;14.50;;;;;;;;;;5075956;28;20576;-89
2022/12/18 06:08:44;;;;;;;16.63;9.17;;;;;;;;;;5075135;28;20457;-89
2022/12/18 06:11:14;;;;;;;16.27;9.90;;;;;;;;;;5075997;28;20454;-88
2022/12/18 06:13:42;;;;;;;10.77;6.10;;;;;;;;;;5093625;28;20443;-89
2022/12/18 06:16:12;;;;;;;3.87;3.67;;;;;;;;;;5092482;28;20467;-89
2022/12/18 06:18:40;;;;;;;17.27;11.00;;;;;;;;;;5074701;28;20462;-89
2022/12/18 06:21:43;;;;;;;8.17;7.63;;;;;;;;;;5056145;28;20471;-89
2022/12/18 06:24:11;;;;;;;17.30;9.93;;;;;;;;;;5059579;28;20443;-89
2022/12/18 06:26:40;;;;;;;12.13;8.33;;;;;;;;;;5069782;28;20478;-89
2022/12/18 06:29:08;;;;;;;29.63;10.90;;;;;;;;;;5066119;28;20447;-89
2022/12/18 06:31:38;;;;;;;16.50;9.13;;;;;;;;;;5079392;28;20447;-88
2022/12/18 06:34:07;;;;;;;20.47;10.50;;;;;;;;;;5089210;28;20451;-88
2022/12/18 06:36:35;;;;;;;22.40;14.77;;;;;;;;;;5059690;28;20444;-88
2022/12/18 06:39:04;;;;;;;23.53;15.53;;;;;;;;;;5067471;28;20466;-88
2022/12/18 06:41:33;;;;;;;20.87;11.60;;;;;;;;;;5079140;28;20465;-89
2022/12/18 06:44:01;;;;;;;27.23;12.57;;;;;;;;;;5078597;28;20482;-89
2022/12/18 06:46:30;;;;;;;19.40;13.53;;;;;;;;;;5096354;28;20463;-89
2022/12/18 06:49:02;;;;;;;30.40;14.10;;;;;;;;;;5077368;28;20439;-89
2022/12/18 06:51:31;;;;;;;21.20;11.70;;;;;;;;;;5096842;28;20434;-89
2022/12/18 06:53:59;;;;;;;12.07;8.60;;;;;;;;;;5067161;28;20459;-89
2022/12/18 06:56:28;;;;;;;6.23;5.53;;;;;;;;;;5073114;28;20457;-89
2022/12/18 06:58:56;;;;;;;6.20;5.53;;;;;;;;;;5087983;28;20439;-90
2022/12/18 07:01:25;;;;;;;5.37;4.87;;;;;;;;;;5095926;28;20438;-89
2022/12/18 07:03:54;;;;;;;8.43;7.33;;;;;;;;;;5076418;28;20489;-89
2022/12/18 07:06:25;;;;;;;6.23;5.13;;;;;;;;;;5065817;28;20478;-89
2022/12/18 07:08:54;;;;;;;19.50;11.97;;;;;;;;;;5077422;28;20455;-89
2022/12/18 07:11:22;;;;;;;4.53;4.23;;;;;;;;;;5083843;28;20453;-89
2022/12/18 07:45:03;;;;;;;16.10;11.57;;;;;;;;;;4808447;29;20509;-88
2022/12/18 07:51:22;;;;;;;20.93;13.07;;;;;;;;;;4908058;28;20476;-89
2022/12/18 07:53:51;;;;;;;17.77;11.17;;;;;;;;;;5018871;28;20473;-88
2022/12/18 07:59:51;;;;;;;8.90;8.03;;;;;;;;;;5072026;28;20533;-88
2022/12/18 08:02:20;;;;;;;8.27;7.23;;;;;;;;;;5075469;28;20444;-88
2022/12/18 08:04:49;;;;;;;4.17;3.90;;;;;;;;;;5094550;28;20466;-89
2022/12/18 08:07:17;;;;;;;6.70;6.10;;;;;;;;;;5070928;28;20470;-89
2022/12/18 08:09:45;;;;;;;7.30;5.23;;;;;;;;;;5064643;28;20469;-89
2022/12/18 08:12:23;;;;;;;2.60;2.17;;;;;;;;;;5076965;28;20493;-88
2022/12/18 08:14:52;;;;;;;5.73;5.43;;;;;;;;;;5057253;28;20447;-89
2022/12/18 08:17:21;;;;;;;10.90;8.77;;;;;;;;;;5068796;28;20561;-89
2022/12/18 08:19:49;;;;;;;5.90;5.17;;;;;;;;;;5076384;28;20446;-89
2022/12/18 08:22:18;;;;;;;8.70;6.90;;;;;;;;;;5076556;28;20508;-88
2022/12/18 08:25:26;;;;;;;13.47;8.77;;;;;;;;;;5074108;28;20482;-89
2022/12/18 08:27:56;;;;;;;4.83;4.37;;;;;;;;;;5067021;28;20553;-89
2022/12/18 08:30:26;;;;;;;4.43;4.23;;;;;;;;;;5094341;28;20439;-89
2022/12/18 08:33:07;;;;;;;2.97;2.87;;;;;;;;;;5077031;28;20497;-89
2022/12/18 08:35:37;;;;;;;9.17;8.13;;;;;;;;;;5071046;28;20466;-89
2022/12/18 09:30:55;;;;;;;11.47;6.77;;;;;;;;;;4801246;29;20462;-89
2022/12/18 09:40:51;;;;;;;6.23;5.63;;;;;;;;;;4833392;29;20551;-89
2022/12/18 09:43:20;;;;;;;8.03;5.80;;;;;;;;;;4871844;28;20452;-89
2022/12/18 09:45:51;;;;;;;11.07;7.57;;;;;;;;;;5031059;28;20456;-89
2022/12/18 09:48:22;;;;;;;12.47;10.97;;;;;;;;;;5032463;28;20483;-89
2022/12/18 09:50:54;;;;;;;16.23;13.47;;;;;;;;;;5029524;28;20450;-89
2022/12/18 09:53:28;;;;;;;12.20;10.90;;;;;;;;;;5033401;28;20522;-89
2022/12/18 09:55:57;;;;;;;15.67;10.17;;;;;;;;;;5032489;28;20448;-89
2022/12/18 09:58:28;;;;;;;14.07;10.90;;;;;;;;;;5033593;28;20464;-89
2022/12/18 10:00:57;;;;;;;10.17;8.10;;;;;;;;;;5033504;28;20457;-89
2022/12/18 10:03:26;;;;;;;19.23;15.57;;;;;;;;;;5036785;28;20522;-89
2022/12/18 10:06:00;;;;;;;3.73;3.43;;;;;;;;;;5035782;28;20476;-89
2022/12/18 10:08:34;;;;;;;6.17;5.53;;;;;;;;;;5025215;28;20480;-89
2022/12/18 10:11:05;;;;;;;4.60;4.20;;;;;;;;;;5035397;28;20451;-88
2022/12/18 10:13:37;;;;;;;19.27;15.20;;;;;;;;;;5036114;28;20209;-88
2022/12/18 10:16:09;;;;;;;13.10;9.60;;;;;;;;;;5039955;28;20201;-88
2022/12/18 10:18:44;;;;;;;12.13;10.80;;;;;;;;;;5040600;28;20567;-88
2022/12/18 10:21:16;;;;;;;7.27;6.00;;;;;;;;;;5037418;28;20546;-88
2022/12/18 10:23:52;;;;;;;10.37;8.83;;;;;;;;;;5041284;28;20256;-88
2022/12/18 10:26:20;;;;;;;10.83;7.03;;;;;;;;;;5055384;28;20462;-88
2022/12/18 10:28:49;;;;;;;5.07;3.10;;;;;;;;;;5043561;28;20229;-88
2022/12/18 10:31:20;;;;;;;7.07;5.73;;;;;;;;;;5048586;28;20447;-88
2022/12/18 10:33:52;;;;;;;14.10;10.47;;;;;;;;;;5072011;28;20462;-88
2022/12/18 10:36:23;;;;;;;5.33;4.83;;;;;;;;;;5078220;28;20212;-88
2022/12/18 10:38:51;;;;;;;4.73;4.37;;;;;;;;;;5059798;28;20443;-88
2022/12/18 10:41:27;;;;;;;7.60;6.33;;;;;;;;;;5072704;28;20447;-88
2022/12/18 10:44:13;;;;;;;6.10;5.60;;;;;;;;;;5078436;28;20200;-88
2022/12/18 10:46:42;;;;;;;7.30;5.80;;;;;;;;;;5069004;28;20197;-88
2022/12/18 10:49:20;;;;;;;3.93;2.07;;;;;;;;;;5078330;28;20224;-88
2022/12/18 10:51:50;;;;;;;10.67;8.50;;;;;;;;;;5077354;28;20193;-88
2022/12/18 10:54:22;;;;;;;11.63;8.00;;;;;;;;;;5072542;28;20201;-87
2022/12/18 10:56:51;;;;;;;12.77;10.23;;;;;;;;;;5077142;28;20219;-88
2022/12/18 10:59:19;;;;;;;7.37;4.57;;;;;;;;;;5079233;28;20201;-88
2022/12/18 11:01:49;;;;;;;10.67;8.27;;;;;;;;;;5070897;28;20197;-89
2022/12/18 11:04:20;;;;;;;11.53;9.47;;;;;;;;;;5074534;28;20317;-89
2022/12/18 11:07:00;;;;;;;13.70;10.27;;;;;;;;;;5079114;28;20204;-89
2022/12/18 11:09:31;;;;;;;4.60;3.20;;;;;;;;;;5071889;28;20252;-88
2022/12/18 11:12:01;;;;;;;12.50;11.20;;;;;;;;;;5070854;28;20270;-89
2022/12/18 11:14:30;;;;;;;13.27;10.57;;;;;;;;;;5065850;28;20211;-89
2022/12/18 11:17:00;;;;;;;17.33;13.33;;;;;;;;;;5078459;28;20207;-88
2022/12/18 11:19:55;;;;;;;8.33;7.47;;;;;;;;;;5068756;28;20188;-89
2022/12/18 11:22:27;;;;;;;15.43;13.60;;;;;;;;;;5091211;28;20196;-88
2022/12/18 11:24:58;;;;;;;7.77;5.60;;;;;;;;;;5070640;28;20231;-88
2022/12/18 11:27:50;;;;;;;9.30;7.30;;;;;;;;;;5076956;28;20221;-88
2022/12/18 11:30:23;;;;;;;8.37;7.27;;;;;;;;;;5065431;28;20201;-88
2022/12/18 11:32:53;;;;;;;10.13;7.10;;;;;;;;;;5078503;28;20200;-88
2022/12/18 11:35:25;;;;;;;6.13;4.70;;;;;;;;;;5076999;28;20193;-88
2022/12/18 11:37:57;;;;;;;17.00;12.23;;;;;;;;;;5066248;28;20201;-88
2022/12/18 11:40:31;;;;;;;19.40;15.13;;;;;;;;;;5076264;28;20193;-88
2022/12/18 11:43:10;;;;;;;9.83;6.90;;;;;;;;;;5076913;28;20204;-87
2022/12/18 11:45:42;;;;;;;3.07;2.90;;;;;;;;;;5078327;28;20197;-88
2022/12/18 11:48:16;;;;;;;8.93;5.50;;;;;;;;;;5077153;28;20218;-88
2022/12/18 11:50:48;;;;;;;2.50;2.40;;;;;;;;;;5067350;28;20209;-88
2022/12/18 11:53:18;;;;;;;8.90;6.43;;;;;;;;;;5075266;28;20208;-88
2022/12/18 11:55:56;;;;;;;7.93;6.90;;;;;;;;;;5065710;28;20202;-88
2022/12/18 11:58:36;;;;;;;6.77;4.20;;;;;;;;;;5082641;28;20198;-88
2022/12/18 12:01:16;;;;;;;11.47;8.10;;;;;;;;;;5073577;28;20208;-88
2022/12/18 12:04:10;;;;;;;8.97;6.03;;;;;;;;;;5074752;28;20220;-88
2022/12/18 12:06:45;;;;;;;10.03;6.93;;;;;;;;;;5070204;28;20193;-88
2022/12/18 12:09:20;;;;;;;5.03;4.73;;;;;;;;;;5077330;28;20208;-87
2022/12/18 12:11:58;;;;;;;4.37;3.97;;;;;;;;;;5073383;28;20193;-85
2022/12/18 12:14:34;;;;;;;2.63;2.40;;;;;;;;;;5077020;28;20246;-86
2022/12/18 12:17:07;;;;;;;7.00;5.27;;;;;;;;;;5076815;28;20228;-85
2022/12/18 12:19:41;;;;;;;4.73;4.07;;;;;;;;;;5076860;28;20193;-87
2022/12/18 12:22:13;;;;;;;12.50;10.20;;;;;;;;;;5075958;28;20224;-88
2022/12/18 12:24:48;;;;;;;14.90;12.10;;;;;;;;;;5077226;28;20229;-87
2022/12/18 12:27:22;;;;;;;2.50;2.30;;;;;;;;;;5070958;28;20202;-86
2022/12/18 12:29:57;;;;;;;6.30;5.67;;;;;;;;;;5087748;28;20204;-85
2022/12/18 12:32:32;;;;;;;7.83;4.53;;;;;;;;;;5064096;28;20209;-90
2022/12/18 12:35:09;;;;;;;10.53;7.73;;;;;;;;;;5075138;28;20196;-85
2022/12/18 12:37:40;;;;;;;13.00;9.67;;;;;;;;;;5072443;28;20197;-86
2022/12/18 12:40:14;;;;;;;12.47;9.73;;;;;;;;;;5072344;28;20190;-86
2022/12/18 12:43:14;;;;;;;8.20;7.37;;;;;;;;;;5070320;28;20205;-85
2022/12/18 12:45:45;;;;;;;16.63;10.40;;;;;;;;;;5076315;28;20200;-86
2022/12/18 12:48:20;;;;;;;12.23;9.23;;;;;;;;;;5076366;28;20212;-84
2022/12/18 12:50:52;;;;;;;12.50;9.43;;;;;;;;;;5071188;28;20287;-86
2022/12/18 12:53:25;;;;;;;10.53;7.67;;;;;;;;;;5070307;28;20201;-86
2022/12/18 12:56:02;;;;;;;9.17;7.77;;;;;;;;;;5075280;28;20254;-86
2022/12/18 12:58:33;;;;;;;7.93;7.17;;;;;;;;;;5075003;28;20223;-88
2022/12/18 13:01:06;;;;;;;9.73;8.17;;;;;;;;;;5080699;28;20604;-87
2022/12/18 13:03:39;;;;;;;12.80;8.00;;;;;;;;;;5075490;28;20221;-87
2022/12/18 13:06:11;;;;;;;6.33;5.47;;;;;;;;;;5071191;28;20198;-86
2022/12/18 13:08:53;;;;;;;11.37;8.57;;;;;;;;;;5057411;28;20218;-86
2022/12/18 13:14:29;;;;;;;6.33;4.70;;;;;;;;;;5089232;28;20202;-85
2022/12/18 13:17:13;;;;;;;7.23;4.00;;;;;;;;;;5060994;28;20201;-84
2022/12/18 13:19:42;;;;;;;4.43;4.03;;;;;;;;;;5063386;28;20192;-85
2022/12/18 13:22:22;;;;;;;10.87;6.40;;;;;;;;;;5072631;28;20284;-85
2022/12/18 13:24:50;;;;;;;9.87;6.83;;;;;;;;;;5075805;28;20243;-85
2022/12/18 13:27:49;;;;;;;15.10;9.57;;;;;;;;;;5073355;28;20194;-85
2022/12/18 13:30:39;;;;;;;5.27;4.17;;;;;;;;;;5034597;28;20218;-85
2022/12/18 13:33:22;;;;;;;8.43;5.77;;;;;;;;;;5070240;28;20216;-86
2022/12/18 13:35:57;;;;;;;11.80;8.10;;;;;;;;;;5060626;28;20266;-84
2022/12/18 13:38:34;;;;;;;11.13;7.90;;;;;;;;;;5074970;28;21031;-84
2022/12/18 13:41:04;;;;;;;12.87;9.93;;;;;;;;;;5066013;28;20200;-84
2022/12/18 13:43:37;;;;;;;9.47;6.50;;;;;;;;;;5079723;28;20208;-84
2022/12/18 13:46:08;;;;;;;9.23;7.47;;;;;;;;;;5075907;28;20188;-85
2022/12/18 13:48:40;;;;;;;12.77;9.00;;;;;;;;;;5073820;28;20200;-84
2022/12/18 13:51:11;;;;;;;9.33;8.30;;;;;;;;;;5075460;28;20265;-85
2022/12/18 13:53:41;;;;;;;10.07;7.87;;;;;;;;;;5085929;28;20281;-84
2022/12/18 13:56:10;;;;;;;11.30;8.57;;;;;;;;;;5069625;28;20204;-85
2022/12/18 13:58:38;;;;;;;11.67;10.47;;;;;;;;;;5075454;28;20197;-84
2022/12/18 14:01:17;;;;;;;14.57;7.50;;;;;;;;;;5060055;28;20206;-84
2022/12/18 14:03:46;;;;;;;10.90;8.60;;;;;;;;;;5055779;28;20258;-84
2022/12/18 14:06:17;;;;;;;13.93;10.43;;;;;;;;;;5066607;28;20197;-85
2022/12/18 14:08:47;;;;;;;14.90;11.63;;;;;;;;;;5055413;28;20193;-84
2022/12/18 14:11:21;;;;;;;11.47;7.40;;;;;;;;;;5073919;28;20209;-84
2022/12/18 14:13:50;;;;;;;15.73;10.20;;;;;;;;;;5074978;28;20232;-85
2022/12/18 14:16:19;;;;;;;12.57;9.73;;;;;;;;;;5092669;28;20226;-84
2022/12/18 14:18:49;;;;;;;9.53;7.80;;;;;;;;;;5092605;28;20227;-84
2022/12/18 14:21:27;;;;;;;9.13;5.80;;;;;;;;;;5093254;28;20211;-84
2022/12/18 14:24:05;;;;;;;15.87;11.13;;;;;;;;;;5074920;28;20268;-84
2022/12/18 14:26:34;;;;;;;13.33;10.13;;;;;;;;;;5093005;28;20212;-84
2022/12/18 14:29:03;;;;;;;9.43;8.37;;;;;;;;;;5074257;28;20202;-84
2022/12/18 14:31:32;;;;;;;12.03;9.37;;;;;;;;;;5075308;28;20208;-84
2022/12/18 14:34:01;;;;;;;7.03;6.33;;;;;;;;;;5079326;28;20224;-84
2022/12/18 14:36:31;;;;;;;12.87;9.87;;;;;;;;;;5089989;28;20190;-85
2022/12/18 14:39:00;;;;;;;9.53;7.60;;;;;;;;;;5067783;28;20258;-84
2022/12/18 14:41:28;;;;;;;15.00;9.43;;;;;;;;;;5073604;28;20197;-84
2022/12/18 14:44:07;;;;;;;11.47;8.33;;;;;;;;;;5077297;28;20242;-84
2022/12/18 14:46:36;;;;;;;14.67;9.40;;;;;;;;;;5078798;28;20193;-84
2022/12/18 14:49:06;;;;;;;8.87;7.37;;;;;;;;;;5072672;28;20292;-84
2022/12/18 14:51:36;;;;;;;22.40;12.70;;;;;;;;;;5077757;28;20264;-84
2022/12/18 14:54:07;;;;;;;13.03;9.47;;;;;;;;;;5095758;28;20217;-84
2022/12/18 14:56:37;;;;;;;8.53;7.53;;;;;;;;;;5076694;28;20189;-84
2022/12/18 14:59:06;;;;;;;11.23;8.73;;;;;;;;;;5078444;28;20288;-84
2022/12/18 15:01:36;;;;;;;12.23;9.87;;;;;;;;;;5065599;28;20293;-84
2022/12/18 15:04:06;;;;;;;6.90;6.10;;;;;;;;;;5082700;28;20305;-85
2022/12/18 15:06:36;;;;;;;7.60;5.50;;;;;;;;;;5095007;28;20194;-84
2022/12/18 15:09:07;;;;;;;12.17;9.00;;;;;;;;;;5096004;28;20208;-84
2022/12/18 15:11:36;;;;;;;7.77;5.50;;;;;;;;;;5077161;28;20189;-84
2022/12/18 15:14:23;;;;;;;2.13;1.77;;;;;;;;;;5076831;28;20232;-84
2022/12/18 15:16:53;;;;;;;9.83;7.57;;;;;;;;;;5088961;28;20201;-84
2022/12/18 15:19:22;;;;;;;10.43;8.63;;;;;;;;;;5077106;28;20224;-84
2022/12/18 15:21:52;;;;;;;9.13;6.67;;;;;;;;;;5064409;28;20233;-84
2022/12/18 15:24:25;;;;;;;13.10;11.37;;;;;;;;;;5078557;28;20244;-84
2022/12/18 15:26:54;;;;;;;12.47;9.83;;;;;;;;;;5056789;28;20207;-85
2022/12/18 15:29:25;;;;;;;7.50;6.43;;;;;;;;;;5049565;28;20237;-84
2022/12/18 15:32:00;;;;;;;13.30;11.03;;;;;;;;;;5053681;28;20201;-84
2022/12/18 15:34:29;;;;;;;11.77;8.93;;;;;;;;;;5057906;28;20202;-84
2022/12/18 15:36:59;;;;;;;13.47;10.63;;;;;;;;;;5074545;28;20205;-84
2022/12/18 15:39:27;;;;;;;7.43;4.77;;;;;;;;;;5075138;28;20205;-84
2022/12/18 15:44:41;;;;;;;11.33;7.80;;;;;;;;;;5057682;28;20236;-84
2022/12/18 15:47:12;;;;;;;10.87;9.00;;;;;;;;;;5074636;28;20280;-84
2022/12/18 15:49:40;;;;;;;9.97;7.60;;;;;;;;;;5055379;28;20205;-84
2022/12/18 15:52:13;;;;;;;6.23;4.37;;;;;;;;;;5064316;28;20198;-84
2022/12/18 15:57:33;;;;;;;11.67;9.30;;;;;;;;;;4979316;28;20255;-85
2022/12/18 16:00:01;;;;;;;11.90;9.13;;;;;;;;;;5037826;28;20202;-84
2022/12/18 16:02:30;;;;;;;15.83;13.27;;;;;;;;;;5051788;28;20206;-84
2022/12/18 16:04:58;;;;;;;16.57;14.80;;;;;;;;;;5057003;28;20221;-84
2022/12/18 16:07:28;;;;;;;6.00;5.23;;;;;;;;;;5056155;28;20198;-84
2022/12/18 16:09:58;;;;;;;11.57;9.83;;;;;;;;;;5056966;28;20208;-84
2022/12/18 16:12:29;;;;;;;10.60;9.50;;;;;;;;;;5074199;28;20202;-84
2022/12/18 16:14:58;;;;;;;16.17;14.50;;;;;;;;;;5074639;28;20215;-85
2022/12/18 16:17:26;;;;;;;16.57;14.10;;;;;;;;;;5070534;28;20198;-83
2022/12/18 16:19:54;;;;;;;11.83;9.67;;;;;;;;;;5052240;28;20251;-84
2022/12/18 16:22:24;;;;;;;14.53;12.93;;;;;;;;;;5051872;28;20248;-84
2022/12/18 16:24:54;;;;;;;16.10;14.10;;;;;;;;;;5047825;28;20226;-84
2022/12/18 16:27:23;;;;;;;19.23;17.30;;;;;;;;;;5092253;28;20227;-84
2022/12/18 16:29:51;;;;;;;16.87;15.17;;;;;;;;;;5064122;28;20247;-84
2022/12/18 16:32:21;;;;;;;14.00;12.50;;;;;;;;;;5075564;28;20197;-85
2022/12/18 16:34:51;;;;;;;19.57;17.53;;;;;;;;;;5075860;28;20205;-85
2022/12/18 16:37:19;;;;;;;20.73;18.63;;;;;;;;;;5064302;28;20205;-84
2022/12/18 16:39:48;;;;;;;20.83;17.83;;;;;;;;;;5093758;28;20197;-84
2022/12/18 16:42:18;;;;;;;19.77;17.77;;;;;;;;;;5075186;28;20296;-84